createdAt,value
2023-05-02T00:00:34.045Z,53.13
2023-05-02T00:01:34.017Z,53.35
2023-05-02T00:02:34.080Z,53.19
2023-05-02T00:03:34.072Z,53.46
2023-05-02T00:04:34.134Z,53.08
2023-05-02T00:05:34.041Z,53.86
2023-05-02T00:06:34.044Z,54.54
2023-05-02T00:07:33.985Z,53.54
2023-05-02T00:08:33.991Z,53.28
2023-05-02T00:09:33.988Z,53.08
2023-05-02T00:10:34.023Z,53.21
2023-05-02T00:11:33.949Z,53.29
2023-05-02T00:12:33.986Z,53.05
2023-05-02T00:13:33.942Z,53.06
2023-05-02T00:14:33.937Z,53.19
2023-05-02T00:15:33.934Z,53.05
2023-05-02T00:16:34.059Z,53.25
2023-05-02T00:17:34.005Z,52.96
2023-05-02T00:18:33.958Z,52.97
2023-05-02T00:19:33.915Z,53.11
2023-05-02T00:20:33.939Z,54.82
2023-05-02T00:21:33.904Z,52.97
2023-05-02T00:22:33.904Z,52.96
2023-05-02T00:23:33.895Z,52.92
2023-05-02T00:24:33.946Z,53.03
2023-05-02T00:25:33.902Z,53.11
2023-05-02T00:26:33.883Z,53.20
2023-05-02T00:27:33.859Z,53.20
2023-05-02T00:28:33.886Z,53.11
2023-05-02T00:29:33.841Z,53.17
2023-05-02T00:30:33.856Z,53.17
2023-05-02T00:31:33.933Z,53.16
2023-05-02T00:32:33.838Z,53.13
2023-05-02T00:33:33.807Z,53.21
2023-05-02T00:34:33.857Z,53.18
2023-05-02T00:35:33.803Z,52.97
2023-05-02T00:36:33.793Z,54.07
2023-05-02T00:37:33.776Z,53.20
2023-05-02T00:38:33.758Z,53.17
2023-05-02T00:39:33.758Z,53.09
2023-05-02T00:40:34.202Z,53.01
2023-05-02T00:41:33.808Z,52.95
2023-05-02T00:42:33.816Z,53.02
2023-05-02T00:43:33.729Z,53.20
2023-05-02T00:44:33.741Z,53.11
2023-05-02T00:45:33.746Z,52.83
2023-05-02T00:46:33.772Z,52.93
2023-05-02T00:47:33.767Z,53.09
2023-05-02T00:49:29.532Z,53.10
2023-05-02T00:49:34.710Z,53.25
2023-05-02T00:50:33.695Z,53.46
2023-05-02T00:51:33.689Z,53.29
2023-05-02T00:52:33.741Z,53.50
2023-05-02T00:53:33.646Z,53.53
2023-05-02T00:54:33.645Z,53.69
2023-05-02T00:55:33.634Z,53.51
2023-05-02T00:56:33.648Z,54.10
2023-05-02T00:57:33.736Z,54.03
2023-05-02T00:58:33.686Z,53.92
2023-05-02T00:59:33.630Z,53.75
2023-05-02T01:00:33.613Z,53.64
2023-05-02T01:01:33.603Z,53.76
2023-05-02T01:02:33.713Z,53.62
2023-05-02T01:03:33.701Z,53.47
2023-05-02T01:04:33.616Z,53.39
2023-05-02T01:05:33.563Z,53.41
2023-05-02T01:06:33.612Z,53.44
2023-05-02T01:07:33.556Z,53.43
2023-05-02T01:08:33.572Z,53.37
2023-05-02T01:09:33.555Z,53.70
2023-05-02T01:10:33.564Z,55.65
2023-05-02T01:11:33.570Z,53.81
2023-05-02T01:12:33.507Z,53.75
2023-05-02T01:13:33.505Z,53.38
2023-05-02T01:14:33.500Z,53.27
2023-05-02T01:15:33.488Z,53.31
2023-05-02T01:16:33.529Z,53.26
2023-05-02T01:17:33.557Z,53.33
2023-05-02T01:18:33.459Z,53.22
2023-05-02T01:19:33.469Z,53.50
2023-05-02T01:20:33.450Z,53.66
2023-05-02T01:21:33.472Z,54.67
2023-05-02T01:22:33.528Z,53.58
2023-05-02T01:23:33.424Z,53.57
2023-05-02T01:24:33.415Z,53.53
2023-05-02T01:25:33.429Z,53.44
2023-05-02T01:26:33.445Z,53.63
2023-05-02T01:27:33.394Z,53.51
2023-05-02T01:28:33.503Z,53.72
2023-05-02T01:29:33.418Z,53.46
2023-05-02T01:30:33.377Z,53.30
2023-05-02T01:31:33.439Z,53.37
2023-05-02T01:32:33.476Z,53.22
2023-05-02T01:33:33.373Z,53.47
2023-05-02T01:34:33.402Z,53.67
2023-05-02T01:35:33.384Z,53.55
2023-05-02T01:36:33.365Z,53.45
2023-05-02T01:37:33.322Z,53.39
2023-05-02T01:38:33.336Z,53.30
2023-05-02T01:39:33.336Z,53.40
2023-05-02T01:40:33.785Z,53.37
2023-05-02T01:41:33.299Z,54.45
2023-05-02T01:42:33.290Z,53.43
2023-05-02T01:43:33.277Z,53.12
2023-05-02T01:44:33.267Z,53.20
2023-05-02T01:45:33.257Z,53.24
2023-05-02T01:46:33.373Z,54.36
2023-05-02T01:47:33.285Z,53.54
2023-05-02T01:48:33.253Z,53.54
2023-05-02T01:49:33.244Z,53.56
2023-05-02T01:50:33.234Z,53.42
2023-05-02T01:51:33.225Z,53.47
2023-05-02T01:52:33.262Z,53.61
2023-05-02T01:53:33.196Z,53.27
2023-05-02T01:54:33.207Z,53.14
2023-05-02T01:55:33.197Z,54.85
2023-05-02T01:56:33.207Z,54.87
2023-05-02T01:57:33.185Z,54.01
2023-05-02T01:58:33.210Z,53.66
2023-05-02T01:59:33.150Z,53.59
2023-05-02T02:00:33.139Z,53.76
2023-05-02T02:01:33.197Z,54.08
2023-05-02T02:02:33.132Z,53.70
2023-05-02T02:03:33.196Z,53.63
2023-05-02T02:04:33.259Z,53.88
2023-05-02T02:05:33.099Z,53.47
2023-05-02T02:06:33.197Z,53.82
2023-05-02T02:07:33.089Z,56.03
2023-05-02T02:08:33.104Z,53.61
2023-05-02T02:09:33.109Z,53.46
2023-05-02T02:10:33.131Z,53.88
2023-05-02T02:11:33.069Z,53.73
2023-05-02T02:12:33.073Z,53.53
2023-05-02T02:13:33.036Z,53.98
2023-05-02T02:14:33.030Z,53.73
2023-05-02T02:15:33.067Z,53.71
2023-05-02T02:16:33.131Z,53.72
2023-05-02T02:17:33.056Z,53.61
2023-05-02T02:18:44.728Z,53.90
2023-05-02T02:19:34.037Z,53.76
2023-05-02T02:20:33.021Z,53.81
2023-05-02T02:21:33.038Z,54.44
2023-05-02T02:22:33.059Z,54.70
2023-05-02T02:23:32.986Z,55.40
2023-05-02T02:24:32.965Z,53.70
2023-05-02T02:25:33.105Z,54.24
2023-05-02T02:26:32.959Z,55.35
2023-05-02T02:27:32.964Z,54.55
2023-05-02T02:28:32.984Z,54.06
2023-05-02T02:29:32.933Z,54.47
2023-05-02T02:30:32.977Z,53.96
2023-05-02T02:31:33.015Z,54.08
2023-05-02T02:32:32.977Z,53.79
2023-05-02T02:33:32.929Z,54.00
2023-05-02T02:34:32.942Z,53.94
2023-05-02T02:35:32.925Z,54.15
2023-05-02T02:36:32.897Z,54.05
2023-05-02T02:37:32.906Z,54.13
2023-05-02T02:38:32.865Z,54.40
2023-05-02T02:39:32.856Z,54.08
2023-05-02T02:40:32.905Z,53.92
2023-05-02T02:41:32.871Z,53.85
2023-05-02T02:42:32.871Z,54.45
2023-05-02T02:43:32.848Z,53.99
2023-05-02T02:44:32.840Z,53.79
2023-05-02T02:45:32.837Z,54.25
2023-05-02T02:46:33.288Z,55.65
2023-05-02T02:47:32.848Z,53.82
2023-05-02T02:48:32.817Z,55.47
2023-05-02T02:49:32.806Z,54.54
2023-05-02T02:50:32.770Z,55.93
2023-05-02T02:51:32.784Z,56.11
2023-05-02T02:52:32.852Z,54.60
2023-05-02T02:53:32.796Z,54.78
2023-05-02T02:54:32.748Z,54.75
2023-05-02T02:55:32.751Z,54.40
2023-05-02T02:56:32.717Z,55.60
2023-05-02T02:57:32.751Z,55.49
2023-05-02T02:58:32.756Z,57.19
2023-05-02T02:59:32.722Z,57.40
2023-05-02T03:00:32.682Z,55.44
2023-05-02T03:01:32.762Z,58.37
2023-05-02T03:02:32.807Z,56.74
2023-05-02T03:03:32.717Z,60.38
2023-05-02T03:04:32.706Z,56.52
2023-05-02T03:05:32.660Z,57.02
2023-05-02T03:06:32.699Z,56.61
2023-05-02T03:07:32.706Z,56.38
2023-05-02T03:08:32.654Z,58.24
2023-05-02T03:09:32.647Z,56.97
2023-05-02T03:10:32.651Z,57.33
2023-05-02T03:11:32.632Z,58.29
2023-05-02T03:12:32.652Z,58.79
2023-05-02T03:13:32.635Z,56.23
2023-05-02T03:14:32.580Z,57.03
2023-05-02T03:15:32.587Z,58.31
2023-05-02T03:16:32.749Z,57.30
2023-05-02T03:17:32.629Z,57.68
2023-05-02T03:18:32.567Z,57.52
2023-05-02T03:19:32.546Z,58.35
2023-05-02T03:20:32.614Z,58.68
2023-05-02T03:21:32.568Z,58.86
2023-05-02T03:22:32.604Z,57.46
2023-05-02T03:23:32.538Z,58.05
2023-05-02T03:24:32.531Z,57.96
2023-05-02T03:25:32.520Z,57.53
2023-05-02T03:26:32.530Z,58.67
2023-05-02T03:27:32.510Z,60.00
2023-05-02T03:28:32.555Z,59.27
2023-05-02T03:29:32.499Z,56.95
2023-05-02T03:30:32.497Z,57.47
2023-05-02T03:31:32.668Z,57.46
2023-05-02T03:32:32.531Z,57.55
2023-05-02T03:33:32.484Z,57.67
2023-05-02T03:34:32.502Z,57.74
2023-05-02T03:35:32.467Z,59.57
2023-05-02T03:36:32.447Z,57.58
2023-05-02T03:37:32.435Z,57.64
2023-05-02T03:38:32.426Z,58.91
2023-05-02T03:39:32.421Z,60.63
2023-05-02T03:40:32.449Z,60.06
2023-05-02T03:41:32.409Z,61.20
2023-05-02T03:42:32.388Z,59.54
2023-05-02T03:43:32.399Z,58.56
2023-05-02T03:44:32.376Z,59.84
2023-05-02T03:45:32.557Z,58.98
2023-05-02T03:46:32.458Z,59.95
2023-05-02T03:47:32.422Z,59.06
2023-05-02T03:48:32.382Z,61.89
2023-05-02T03:49:32.345Z,61.32
2023-05-02T03:50:32.354Z,59.03
2023-05-02T03:51:32.336Z,60.59
2023-05-02T03:52:32.657Z,61.12
2023-05-02T03:53:32.318Z,59.98
2023-05-02T03:54:32.310Z,59.53
2023-05-02T03:55:32.308Z,60.08
2023-05-02T03:56:32.303Z,58.60
2023-05-02T03:57:32.296Z,58.57
2023-05-02T03:58:32.328Z,57.42
2023-05-02T03:59:32.310Z,57.16
2023-05-02T04:00:32.359Z,58.13
2023-05-02T04:01:32.254Z,58.67
2023-05-02T04:02:32.373Z,57.36
2023-05-02T04:03:32.316Z,57.17
2023-05-02T04:04:32.389Z,59.02
2023-05-02T04:05:32.214Z,59.34
2023-05-02T04:06:32.314Z,58.58
2023-05-02T04:07:32.237Z,56.13
2023-05-02T04:08:32.209Z,57.84
2023-05-02T04:09:32.189Z,57.40
2023-05-02T04:10:32.261Z,56.40
2023-05-02T04:11:32.179Z,59.44
2023-05-02T04:12:32.176Z,57.43
2023-05-02T04:13:32.179Z,59.63
2023-05-02T04:14:32.153Z,59.19
2023-05-02T04:15:32.169Z,57.62
2023-05-02T04:16:32.212Z,58.47
2023-05-02T04:17:32.149Z,57.17
2023-05-02T04:18:32.121Z,57.17
2023-05-02T04:19:32.136Z,56.85
2023-05-02T04:20:32.124Z,59.11
2023-05-02T04:21:32.091Z,57.60
2023-05-02T04:22:32.152Z,56.18
2023-05-02T04:23:32.108Z,57.26
2023-05-02T04:24:32.096Z,58.46
2023-05-02T04:25:32.067Z,62.61
2023-05-02T04:26:32.082Z,58.08
2023-05-02T04:27:32.065Z,58.24
2023-05-02T04:28:32.109Z,57.05
2023-05-02T04:29:32.073Z,57.52
2023-05-02T04:30:32.067Z,58.62
2023-05-02T04:31:32.121Z,57.63
2023-05-02T04:32:32.058Z,58.04
2023-05-02T04:33:32.040Z,60.56
2023-05-02T04:34:32.042Z,57.52
2023-05-02T04:35:32.128Z,56.72
2023-05-02T04:36:32.021Z,56.71
2023-05-02T04:37:31.997Z,57.64
2023-05-02T04:38:31.976Z,58.50
2023-05-02T04:39:31.997Z,58.63
2023-05-02T04:40:32.018Z,57.15
2023-05-02T04:41:31.954Z,56.57
2023-05-02T04:42:31.943Z,57.61
2023-05-02T04:43:31.933Z,58.65
2023-05-02T04:44:31.933Z,58.01
2023-05-02T04:45:31.922Z,57.37
2023-05-02T04:46:32.065Z,57.57
2023-05-02T04:47:31.954Z,58.05
2023-05-02T04:48:31.916Z,56.62
2023-05-02T04:49:31.905Z,57.19
2023-05-02T04:50:31.899Z,60.06
2023-05-02T04:51:31.879Z,57.79
2023-05-02T04:52:31.935Z,57.33
2023-05-02T04:53:31.877Z,57.84
2023-05-02T04:54:31.861Z,57.67
2023-05-02T04:55:31.857Z,58.52
2023-05-02T04:56:31.845Z,59.12
2023-05-02T04:57:31.860Z,57.11
2023-05-02T04:58:32.334Z,55.70
2023-05-02T04:59:31.829Z,56.96
2023-05-02T05:00:31.851Z,56.61
2023-05-02T05:01:31.809Z,58.47
2023-05-02T05:02:31.907Z,57.53
2023-05-02T05:03:31.838Z,57.02
2023-05-02T05:04:31.811Z,59.74
2023-05-02T05:05:31.860Z,58.31
2023-05-02T05:06:31.829Z,55.66
2023-05-02T05:07:31.762Z,57.08
2023-05-02T05:08:31.750Z,57.82
2023-05-02T05:09:31.746Z,55.86
2023-05-02T05:10:31.803Z,58.40
2023-05-02T05:11:31.753Z,56.61
2023-05-02T05:12:31.727Z,58.00
2023-05-02T05:13:31.746Z,57.25
2023-05-02T05:14:31.737Z,59.84
2023-05-02T05:15:31.709Z,56.01
2023-05-02T05:16:31.796Z,57.20
2023-05-02T05:17:31.724Z,59.14
2023-05-02T05:18:31.706Z,60.06
2023-05-02T05:19:31.690Z,56.73
2023-05-02T05:20:31.691Z,57.68
2023-05-02T05:21:31.706Z,57.83
2023-05-02T05:22:31.688Z,59.77
2023-05-02T05:23:31.674Z,60.77
2023-05-02T05:24:31.633Z,61.36
2023-05-02T05:25:31.634Z,59.77
2023-05-02T05:26:31.673Z,58.87
2023-05-02T05:27:31.643Z,59.78
2023-05-02T05:28:31.612Z,59.40
2023-05-02T05:29:31.614Z,57.87
2023-05-02T05:30:31.597Z,59.48
2023-05-02T05:31:31.730Z,60.88
2023-05-02T05:32:31.620Z,57.79
2023-05-02T05:33:31.609Z,59.09
2023-05-02T05:34:31.633Z,60.79
2023-05-02T05:35:31.564Z,59.69
2023-05-02T05:36:31.597Z,58.03
2023-05-02T05:37:31.560Z,61.42
2023-05-02T05:38:31.539Z,56.85
2023-05-02T05:39:31.552Z,59.29
2023-05-02T05:40:31.516Z,59.38
2023-05-02T05:41:31.517Z,58.72
2023-05-02T05:42:31.575Z,57.69
2023-05-02T05:43:31.505Z,59.24
2023-05-02T05:44:31.534Z,60.79
2023-05-02T05:45:31.499Z,57.52
2023-05-02T05:46:31.499Z,59.86
2023-05-02T05:47:31.662Z,58.73
2023-05-02T05:48:31.493Z,59.28
2023-05-02T05:49:31.474Z,58.99
2023-05-02T05:50:31.437Z,58.28
2023-05-02T05:51:31.444Z,60.60
2023-05-02T05:52:31.479Z,59.61
2023-05-02T05:53:31.432Z,60.25
2023-05-02T05:54:31.464Z,60.34
2023-05-02T05:55:31.421Z,59.44
2023-05-02T05:56:31.415Z,57.70
2023-05-02T05:57:31.444Z,60.94
2023-05-02T05:58:31.430Z,58.50
2023-05-02T05:59:31.397Z,56.64
2023-05-02T06:00:31.391Z,58.07
2023-05-02T06:01:31.392Z,59.00
2023-05-02T06:02:31.401Z,57.32
2023-05-02T06:03:31.454Z,57.49
2023-05-02T06:04:31.403Z,58.82
2023-05-02T06:05:31.345Z,59.46
2023-05-02T06:06:31.398Z,56.57
2023-05-02T06:07:31.327Z,56.86
2023-05-02T06:08:31.358Z,58.46
2023-05-02T06:09:31.301Z,57.40
2023-05-02T06:10:31.325Z,58.95
2023-05-02T06:11:31.313Z,59.33
2023-05-02T06:12:31.284Z,59.60
2023-05-02T06:13:31.293Z,58.76
2023-05-02T06:14:31.300Z,56.49
2023-05-02T06:15:31.292Z,57.48
2023-05-02T06:16:31.383Z,56.37
2023-05-02T06:17:31.351Z,57.67
2023-05-02T06:18:31.240Z,59.29
2023-05-02T06:19:31.280Z,57.93
2023-05-02T06:20:31.233Z,56.36
2023-05-02T06:21:31.239Z,57.26
2023-05-02T06:22:31.235Z,56.26
2023-05-02T06:23:31.201Z,56.08
2023-05-02T06:24:31.225Z,59.01
2023-05-02T06:25:31.224Z,57.97
2023-05-02T06:26:31.187Z,57.05
2023-05-02T06:27:33.458Z,57.96
2023-05-02T06:28:31.175Z,59.60
2023-05-02T06:29:31.172Z,57.41
2023-05-02T06:30:31.192Z,59.57
2023-05-02T06:31:31.216Z,56.28
2023-05-02T06:32:31.167Z,58.69
2023-05-02T06:33:31.128Z,58.32
2023-05-02T06:34:31.144Z,57.89
2023-05-02T06:35:31.129Z,58.66
2023-05-02T06:36:31.167Z,59.34
2023-05-02T06:37:31.131Z,57.38
2023-05-02T06:38:31.131Z,57.06
2023-05-02T06:39:31.122Z,58.63
2023-05-02T06:40:31.129Z,58.48
2023-05-02T06:41:31.095Z,59.63
2023-05-02T06:42:31.111Z,58.46
2023-05-02T06:43:31.053Z,56.94
2023-05-02T06:44:31.062Z,57.71
2023-05-02T06:45:31.041Z,55.58
2023-05-02T06:46:31.055Z,58.78
2023-05-02T06:47:31.035Z,57.93
2023-05-02T06:48:31.062Z,58.74
2023-05-02T06:49:31.006Z,57.16
2023-05-02T06:50:30.999Z,56.07
2023-05-02T06:51:30.997Z,56.45
2023-05-02T06:52:30.979Z,57.86
2023-05-02T06:53:32.918Z,59.93
2023-05-02T06:54:31.042Z,56.74
2023-05-02T06:55:30.979Z,57.63
2023-05-02T06:56:30.999Z,59.31
2023-05-02T06:57:30.965Z,56.17
2023-05-02T06:58:30.993Z,58.80
2023-05-02T06:59:30.981Z,58.21
2023-05-02T07:00:30.958Z,56.38
2023-05-02T07:01:31.040Z,58.51
2023-05-02T07:02:30.933Z,59.34
2023-05-02T07:03:30.946Z,58.69
2023-05-02T07:04:30.952Z,58.13
2023-05-02T07:05:31.304Z,57.53
2023-05-02T07:06:30.942Z,59.08
2023-05-02T07:07:30.869Z,57.14
2023-05-02T07:08:30.874Z,58.26
2023-05-02T07:09:30.886Z,56.12
2023-05-02T07:10:30.877Z,58.99
2023-05-02T07:11:30.914Z,60.28
2023-05-02T07:12:30.860Z,57.45
2023-05-02T07:13:30.824Z,55.48
2023-05-02T07:14:30.852Z,55.65
2023-05-02T07:15:30.847Z,57.76
2023-05-02T07:16:30.940Z,57.35
2023-05-02T07:17:30.884Z,57.56
2023-05-02T07:18:30.798Z,57.37
2023-05-02T07:19:30.778Z,58.05
2023-05-02T07:20:30.788Z,57.06
2023-05-02T07:21:30.777Z,57.02
2023-05-02T07:22:30.815Z,57.88
2023-05-02T07:23:30.746Z,56.87
2023-05-02T07:24:30.783Z,56.52
2023-05-02T07:25:30.756Z,55.62
2023-05-02T07:26:30.838Z,56.78
2023-05-02T07:27:30.758Z,57.41
2023-05-02T07:28:30.768Z,57.03
2023-05-02T07:29:30.754Z,56.72
2023-05-02T07:30:30.705Z,57.33
2023-05-02T07:31:30.740Z,55.63
2023-05-02T07:32:30.934Z,56.75
2023-05-02T07:33:30.685Z,57.16
2023-05-02T07:34:30.726Z,59.35
2023-05-02T07:35:30.661Z,56.78
2023-05-02T07:36:30.666Z,59.97
2023-05-02T07:37:32.006Z,56.73
2023-05-02T07:38:30.646Z,54.17
2023-05-02T07:39:30.670Z,57.89
2023-05-02T07:40:30.631Z,58.99
2023-05-02T07:41:30.652Z,56.47
2023-05-02T07:42:30.629Z,59.57
2023-05-02T07:43:30.692Z,56.92
2023-05-02T07:44:30.664Z,57.87
2023-05-02T07:45:30.625Z,57.14
2023-05-02T07:46:30.648Z,60.53
2023-05-02T07:47:30.636Z,56.51
2023-05-02T07:48:30.581Z,56.99
2023-05-02T07:49:30.635Z,56.33
2023-05-02T07:50:30.592Z,57.41
2023-05-02T07:51:30.561Z,56.57
2023-05-02T07:52:30.594Z,57.37
2023-05-02T07:53:30.539Z,57.01
2023-05-02T07:54:30.587Z,58.02
2023-05-02T07:55:30.524Z,59.01
2023-05-02T07:56:30.537Z,60.01
2023-05-02T07:57:30.513Z,61.56
2023-05-02T07:58:30.524Z,56.16
2023-05-02T07:59:30.570Z,57.52
2023-05-02T08:00:30.506Z,56.95
2023-05-02T08:01:30.510Z,55.59
2023-05-02T08:02:30.604Z,54.51
2023-05-02T08:03:30.563Z,56.76
2023-05-02T08:04:30.563Z,57.62
2023-05-02T08:05:30.484Z,57.40
2023-05-02T08:06:30.476Z,58.07
2023-05-02T08:07:30.444Z,57.60
2023-05-02T08:08:30.419Z,56.43
2023-05-02T08:09:30.440Z,56.37
2023-05-02T08:10:30.840Z,54.96
2023-05-02T08:11:30.422Z,56.64
2023-05-02T08:12:30.422Z,55.34
2023-05-02T08:13:30.461Z,56.86
2023-05-02T08:14:30.393Z,55.48
2023-05-02T08:15:30.396Z,57.22
2023-05-02T08:16:30.430Z,56.58
2023-05-02T08:17:30.399Z,56.02
2023-05-02T08:18:30.389Z,56.54
2023-05-02T08:19:30.355Z,57.56
2023-05-02T08:20:30.354Z,56.46
2023-05-02T08:21:30.357Z,58.17
2023-05-02T08:22:30.390Z,60.59
2023-05-02T08:23:30.326Z,58.08
2023-05-02T08:24:30.303Z,57.07
2023-05-02T08:25:30.312Z,55.04
2023-05-02T08:26:30.323Z,57.73
2023-05-02T08:27:30.332Z,57.26
2023-05-02T08:28:30.314Z,57.57
2023-05-02T08:29:30.339Z,55.87
2023-05-02T08:30:30.299Z,57.59
2023-05-02T08:31:30.332Z,56.95
2023-05-02T08:32:30.350Z,57.22
2023-05-02T08:33:30.264Z,57.87
2023-05-02T08:34:30.253Z,56.60
2023-05-02T08:35:30.436Z,56.97
2023-05-02T08:36:30.231Z,57.24
2023-05-02T08:37:30.275Z,55.25
2023-05-02T08:38:30.232Z,55.09
2023-05-02T08:39:30.217Z,57.04
2023-05-02T08:40:40.816Z,56.69
2023-05-02T08:41:31.213Z,56.66
2023-05-02T08:42:30.221Z,56.38
2023-05-02T08:43:30.206Z,57.18
2023-05-02T08:44:30.177Z,56.90
2023-05-02T08:45:30.155Z,58.60
2023-05-02T08:46:30.160Z,56.17
2023-05-02T08:47:30.181Z,57.11
2023-05-02T08:48:30.152Z,57.10
2023-05-02T08:49:30.191Z,57.81
2023-05-02T08:50:30.119Z,56.73
2023-05-02T08:51:30.121Z,56.61
2023-05-02T08:52:30.118Z,57.68
2023-05-02T08:53:30.117Z,56.91
2023-05-02T08:54:30.131Z,58.55
2023-05-02T08:55:30.095Z,57.87
2023-05-02T08:56:30.124Z,57.13
2023-05-02T08:57:30.075Z,57.47
2023-05-02T08:58:30.063Z,56.39
2023-05-02T08:59:30.104Z,55.99
2023-05-02T09:00:30.065Z,55.56
2023-05-02T09:01:30.102Z,56.84
2023-05-02T09:02:30.033Z,57.37
2023-05-02T09:03:30.017Z,59.11
2023-05-02T09:04:30.182Z,57.18
2023-05-02T09:05:30.016Z,56.02
2023-05-02T09:06:30.225Z,54.26
2023-05-02T09:07:30.007Z,55.03
2023-05-02T09:08:29.991Z,61.07
2023-05-02T09:09:30.010Z,56.61
2023-05-02T09:10:29.969Z,54.10
2023-05-02T09:11:30.019Z,54.54
2023-05-02T09:12:29.956Z,54.80
2023-05-02T09:13:29.971Z,54.52
2023-05-02T09:14:30.001Z,56.16
2023-05-02T09:15:30.174Z,58.22
2023-05-02T09:16:29.966Z,54.40
2023-05-02T09:17:29.945Z,57.93
2023-05-02T09:18:29.930Z,56.03
2023-05-02T09:19:29.906Z,57.11
2023-05-02T09:20:29.921Z,58.72
2023-05-02T09:21:30.006Z,57.08
2023-05-02T09:22:29.897Z,55.36
2023-05-02T09:23:29.946Z,54.94
2023-05-02T09:24:29.909Z,55.37
2023-05-02T09:25:29.875Z,55.47
2023-05-02T09:26:31.612Z,55.35
2023-05-02T09:27:29.897Z,56.49
2023-05-02T09:28:29.860Z,55.63
2023-05-02T09:29:29.888Z,54.62
2023-05-02T09:30:29.860Z,55.34
2023-05-02T09:31:49.724Z,56.94
2023-05-02T09:32:30.942Z,55.19
2023-05-02T09:33:29.826Z,56.01
2023-05-02T09:34:29.879Z,56.29
2023-05-02T09:35:29.821Z,56.28
2023-05-02T09:36:29.802Z,56.90
2023-05-02T09:37:29.839Z,55.25
2023-05-02T09:38:29.830Z,55.95
2023-05-02T09:39:29.780Z,57.12
2023-05-02T09:40:29.789Z,56.30
2023-05-02T09:41:29.737Z,55.28
2023-05-02T09:42:29.803Z,56.95
2023-05-02T09:43:29.767Z,57.70
2023-05-02T09:44:29.720Z,57.86
2023-05-02T09:45:29.720Z,58.53
2023-05-02T09:46:29.831Z,57.31
2023-05-02T09:47:29.830Z,62.27
2023-05-02T09:48:29.720Z,55.41
2023-05-02T09:49:29.743Z,57.44
2023-05-02T09:50:29.698Z,60.57
2023-05-02T09:51:29.701Z,61.44
2023-05-02T09:52:29.717Z,60.18
2023-05-02T09:53:29.692Z,59.08
2023-05-02T09:54:29.687Z,58.91
2023-05-02T09:55:29.637Z,60.43
2023-05-02T09:56:29.680Z,64.30
2023-05-02T09:57:29.781Z,61.77
2023-05-02T09:58:29.763Z,59.86
2023-05-02T09:59:29.652Z,58.76
2023-05-02T10:00:29.659Z,62.00
2023-05-02T10:01:29.708Z,61.62
2023-05-02T10:02:29.700Z,59.17
2023-05-02T10:03:29.632Z,60.46
2023-05-02T10:04:29.645Z,60.33
2023-05-02T10:05:30.143Z,57.91
2023-05-02T10:06:29.645Z,58.18
2023-05-02T10:07:29.574Z,57.95
2023-05-02T10:08:29.621Z,58.86
2023-05-02T10:09:29.588Z,57.96
2023-05-02T10:10:29.560Z,59.29
2023-05-02T10:11:29.562Z,59.02
2023-05-02T10:12:29.560Z,58.09
2023-05-02T10:13:29.581Z,56.55
2023-05-02T10:14:29.817Z,59.40
2023-05-02T10:15:29.532Z,58.41
2023-05-02T10:16:29.545Z,56.64
2023-05-02T10:17:29.616Z,60.67
2023-05-02T10:18:29.543Z,56.44
2023-05-02T10:19:29.496Z,57.71
2023-05-02T10:20:29.500Z,59.31
2023-05-02T10:21:29.464Z,60.48
2023-05-02T10:22:29.484Z,59.63
2023-05-02T10:23:29.515Z,59.52
2023-05-02T10:24:29.460Z,57.93
2023-05-02T10:25:29.476Z,56.74
2023-05-02T10:26:29.467Z,58.19
2023-05-02T10:27:29.441Z,59.03
2023-05-02T10:28:29.485Z,56.80
2023-05-02T10:29:29.463Z,59.14
2023-05-02T10:30:29.453Z,58.21
2023-05-02T10:31:29.454Z,57.50
2023-05-02T10:32:29.662Z,58.79
2023-05-02T10:33:29.421Z,57.97
2023-05-02T10:34:29.450Z,58.19
2023-05-02T10:35:29.460Z,58.38
2023-05-02T10:36:29.438Z,58.73
2023-05-02T10:37:29.361Z,56.53
2023-05-02T10:38:29.439Z,55.85
2023-05-02T10:39:29.350Z,56.84
2023-05-02T10:40:29.338Z,55.85
2023-05-02T10:41:29.363Z,56.31
2023-05-02T10:42:29.332Z,56.15
2023-05-02T10:43:29.392Z,57.38
2023-05-02T10:44:29.304Z,59.18
2023-05-02T10:45:29.277Z,59.10
2023-05-02T10:46:29.346Z,60.91
2023-05-02T10:47:29.289Z,59.41
2023-05-02T10:48:29.309Z,56.65
2023-05-02T10:49:29.315Z,58.52
2023-05-02T10:50:29.277Z,57.48
2023-05-02T10:51:29.285Z,56.95
2023-05-02T10:52:30.320Z,58.21
2023-05-02T10:53:29.285Z,58.75
2023-05-02T10:54:29.232Z,59.89
2023-05-02T10:55:29.241Z,58.72
2023-05-02T10:56:29.396Z,55.80
2023-05-02T10:57:29.180Z,57.38
2023-05-02T10:58:29.263Z,58.26
2023-05-02T10:59:29.229Z,58.63
2023-05-02T11:00:29.155Z,57.50
2023-05-02T11:01:29.464Z,58.34
2023-05-02T11:02:29.332Z,58.86
2023-05-02T11:03:29.219Z,56.56
2023-05-02T11:04:29.172Z,58.36
2023-05-02T11:05:29.182Z,59.31
2023-05-02T11:06:29.209Z,56.94
2023-05-02T11:07:29.147Z,56.53
2023-05-02T11:08:29.117Z,54.70
2023-05-02T11:09:29.167Z,57.19
2023-05-02T11:10:29.179Z,58.38
2023-05-02T11:11:29.100Z,58.53
2023-05-02T11:12:29.096Z,57.35
2023-05-02T11:13:29.157Z,56.76
2023-05-02T11:14:29.105Z,57.50
2023-05-02T11:15:29.156Z,58.39
2023-05-02T11:16:29.095Z,56.20
2023-05-02T11:17:29.167Z,56.46
2023-05-02T11:18:29.075Z,56.83
2023-05-02T11:19:31.034Z,57.65
2023-05-02T11:20:29.086Z,57.43
2023-05-02T11:21:29.315Z,56.68
2023-05-02T11:22:31.054Z,55.01
2023-05-02T11:23:28.998Z,54.87
2023-05-02T11:24:29.024Z,55.89
2023-05-02T11:26:29.019Z,56.24
2023-05-02T11:27:29.255Z,52.79
2023-05-02T11:28:29.001Z,54.34
2023-05-02T11:29:28.958Z,55.97
2023-05-02T11:30:28.956Z,56.36
2023-05-02T11:31:28.971Z,54.54
2023-05-02T11:32:28.992Z,56.81
2023-05-02T11:33:29.007Z,57.39
2023-05-02T11:34:28.912Z,57.10
2023-05-02T11:35:28.912Z,57.52
2023-05-02T11:36:28.899Z,56.71
2023-05-02T11:37:29.889Z,55.94
2023-05-02T11:38:28.921Z,58.69
2023-05-02T11:39:28.906Z,55.56
2023-05-02T11:40:28.906Z,55.64
2023-05-02T11:41:28.878Z,56.45
2023-05-02T11:42:28.913Z,56.56
2023-05-02T11:43:31.257Z,58.11
2023-05-02T11:44:28.837Z,58.09
2023-05-02T11:45:28.848Z,55.64
2023-05-02T11:46:28.951Z,55.64
2023-05-02T11:47:28.871Z,58.71
2023-05-02T11:48:28.857Z,57.77
2023-05-02T11:49:28.836Z,58.94
2023-05-02T11:50:28.800Z,58.94
2023-05-02T11:51:28.818Z,63.25
2023-05-02T11:52:28.802Z,57.92
2023-05-02T11:53:28.785Z,59.86
2023-05-02T11:54:28.800Z,57.11
2023-05-02T11:55:28.741Z,56.57
2023-05-02T11:56:28.750Z,56.17
2023-05-02T11:57:28.765Z,57.48
2023-05-02T11:58:28.746Z,55.77
2023-05-02T11:59:28.781Z,56.17
2023-05-02T12:00:28.749Z,56.14
2023-05-02T12:01:28.754Z,56.81
2023-05-02T12:02:28.884Z,57.30
2023-05-02T12:03:28.889Z,56.08
2023-05-02T12:04:28.719Z,56.97
2023-05-02T12:05:28.755Z,56.53
2023-05-02T12:06:28.706Z,57.40
2023-05-02T12:07:28.679Z,56.78
2023-05-02T12:08:28.756Z,57.25
2023-05-02T12:09:28.702Z,57.45
2023-05-02T12:10:28.667Z,58.04
2023-05-02T12:11:28.665Z,56.38
2023-05-02T12:12:28.649Z,57.23
2023-05-02T12:13:28.624Z,55.47
2023-05-02T12:14:28.649Z,54.55
2023-05-02T12:15:28.631Z,57.53
2023-05-02T12:16:28.697Z,57.55
2023-05-02T12:17:28.638Z,55.77
2023-05-02T12:18:28.620Z,56.58
2023-05-02T12:19:28.637Z,58.67
2023-05-02T12:20:28.565Z,57.64
2023-05-02T12:21:28.565Z,58.39
2023-05-02T12:22:28.616Z,56.19
2023-05-02T12:23:28.560Z,56.77
2023-05-02T12:24:28.629Z,53.61
2023-05-02T12:25:28.583Z,55.09
2023-05-02T12:26:28.523Z,58.19
2023-05-02T12:27:28.547Z,55.30
2023-05-02T12:28:28.579Z,57.85
2023-05-02T12:29:28.541Z,57.78
2023-05-02T12:30:28.573Z,55.59
2023-05-02T12:31:28.600Z,58.28
2023-05-02T12:32:28.625Z,55.16
2023-05-02T12:33:28.503Z,55.30
2023-05-02T12:34:28.540Z,56.96
2023-05-02T12:35:28.480Z,55.39
2023-05-02T12:36:28.461Z,56.49
2023-05-02T12:37:28.511Z,56.69
2023-05-02T12:38:28.476Z,57.93
2023-05-02T12:39:28.499Z,53.76
2023-05-02T12:40:28.456Z,54.50
2023-05-02T12:41:28.522Z,55.47
2023-05-02T12:42:28.466Z,55.56
2023-05-02T12:43:28.430Z,55.08
2023-05-02T12:44:28.446Z,55.85
2023-05-02T12:45:28.429Z,57.11
2023-05-02T12:46:28.489Z,57.89
2023-05-02T12:47:28.466Z,54.79
2023-05-02T12:48:28.389Z,56.07
2023-05-02T12:49:28.456Z,56.52
2023-05-02T12:50:28.414Z,55.48
2023-05-02T12:51:28.384Z,55.86
2023-05-02T12:52:28.419Z,54.63
2023-05-02T12:53:28.360Z,55.38